sensor_id;sensor_type;location;lat;lon;timestamp;temperature;humidity
16643;DHT22;8435;52.184;5.406;2024-02-21T00:02:02;12.30;99.90
16643;DHT22;8435;52.184;5.406;2024-02-21T00:04:30;12.30;99.90
16643;DHT22;8435;52.184;5.406;2024-02-21T00:06:57;12.30;99.90
16643;DHT22;8435;52.184;5.406;2024-02-21T00:09:23;12.20;99.90
16643;DHT22;8435;52.184;5.406;2024-02-21T00:11:50;12.20;99.90
16643;DHT22;8435;52.184;5.406;2024-02-21T00:14:17;12.20;99.90
16643;DHT22;8435;52.184;5.406;2024-02-21T00:16:46;12.20;99.90
16643;DHT22;8435;52.184;5.406;2024-02-21T00:19:12;12.20;99.90
16643;DHT22;8435;52.184;5.406;2024-02-21T00:21:41;12.20;99.90
16643;DHT22;8435;52.184;5.406;2024-02-21T00:24:08;12.20;99.90
16643;DHT22;8435;52.184;5.406;2024-02-21T00:26:35;12.20;99.90
16643;DHT22;8435;52.184;5.406;2024-02-21T00:29:01;12.20;99.90
16643;DHT22;8435;52.184;5.406;2024-02-21T00:31:28;12.20;99.90
16643;DHT22;8435;52.184;5.406;2024-02-21T00:33:55;12.20;99.90
16643;DHT22;8435;52.184;5.406;2024-02-21T00:36:22;12.10;99.90
16643;DHT22;8435;52.184;5.406;2024-02-21T00:38:50;12.20;99.90
16643;DHT22;8435;52.184;5.406;2024-02-21T00:41:16;12.20;99.90
16643;DHT22;8435;52.184;5.406;2024-02-21T00:43:43;12.20;99.90
16643;DHT22;8435;52.184;5.406;2024-02-21T00:46:10;12.20;99.90
16643;DHT22;8435;52.184;5.406;2024-02-21T00:48:37;12.20;99.90
16643;DHT22;8435;52.184;5.406;2024-02-21T00:51:04;12.20;99.90
16643;DHT22;8435;52.184;5.406;2024-02-21T00:53:30;12.10;99.90
16643;DHT22;8435;52.184;5.406;2024-02-21T00:55:58;12.20;99.90
16643;DHT22;8435;52.184;5.406;2024-02-21T00:58:25;12.20;99.90
16643;DHT22;8435;52.184;5.406;2024-02-21T01:00:52;12.20;99.90
16643;DHT22;8435;52.184;5.406;2024-02-21T01:03:19;12.20;99.90
16643;DHT22;8435;52.184;5.406;2024-02-21T01:05:45;12.30;99.90
16643;DHT22;8435;52.184;5.406;2024-02-21T01:08:12;12.20;99.90
16643;DHT22;8435;52.184;5.406;2024-02-21T01:10:39;12.20;99.90
16643;DHT22;8435;52.184;5.406;2024-02-21T01:13:07;12.20;99.90
16643;DHT22;8435;52.184;5.406;2024-02-21T01:15:34;12.20;99.90
16643;DHT22;8435;52.184;5.406;2024-02-21T01:18:01;12.20;99.90
16643;DHT22;8435;52.184;5.406;2024-02-21T01:20:28;12.20;99.90
16643;DHT22;8435;52.184;5.406;2024-02-21T01:22:54;12.20;99.90
16643;DHT22;8435;52.184;5.406;2024-02-21T01:25:21;12.20;99.90
16643;DHT22;8435;52.184;5.406;2024-02-21T01:27:48;12.20;99.90
16643;DHT22;8435;52.184;5.406;2024-02-21T01:30:16;12.20;99.90
16643;DHT22;8435;52.184;5.406;2024-02-21T01:32:43;12.20;99.90
16643;DHT22;8435;52.184;5.406;2024-02-21T01:35:10;12.20;99.90
16643;DHT22;8435;52.184;5.406;2024-02-21T01:37:36;12.20;99.90
16643;DHT22;8435;52.184;5.406;2024-02-21T01:40:04;12.20;99.90
16643;DHT22;8435;52.184;5.406;2024-02-21T01:42:31;12.30;99.90
16643;DHT22;8435;52.184;5.406;2024-02-21T01:44:58;12.20;99.90
16643;DHT22;8435;52.184;5.406;2024-02-21T01:47:26;12.20;99.90
16643;DHT22;8435;52.184;5.406;2024-02-21T01:49:53;12.20;99.90
16643;DHT22;8435;52.184;5.406;2024-02-21T01:52:20;12.20;99.90
16643;DHT22;8435;52.184;5.406;2024-02-21T01:54:47;12.30;99.90
16643;DHT22;8435;52.184;5.406;2024-02-21T01:57:14;12.30;99.90
16643;DHT22;8435;52.184;5.406;2024-02-21T01:59:42;12.30;99.90
16643;DHT22;8435;52.184;5.406;2024-02-21T02:02:09;12.30;99.90
16643;DHT22;8435;52.184;5.406;2024-02-21T02:04:38;12.30;99.90
16643;DHT22;8435;52.184;5.406;2024-02-21T02:07:06;12.30;99.90
16643;DHT22;8435;52.184;5.406;2024-02-21T02:09:34;12.30;99.90
16643;DHT22;8435;52.184;5.406;2024-02-21T02:12:02;12.30;99.90
16643;DHT22;8435;52.184;5.406;2024-02-21T02:14:28;12.30;99.90
16643;DHT22;8435;52.184;5.406;2024-02-21T02:16:55;12.30;99.90
16643;DHT22;8435;52.184;5.406;2024-02-21T02:19:22;12.30;99.90
16643;DHT22;8435;52.184;5.406;2024-02-21T02:21:53;12.30;99.90
16643;DHT22;8435;52.184;5.406;2024-02-21T02:24:24;12.30;99.90
16643;DHT22;8435;52.184;5.406;2024-02-21T02:26:51;12.30;99.90
16643;DHT22;8435;52.184;5.406;2024-02-21T02:29:18;12.30;99.90
16643;DHT22;8435;52.184;5.406;2024-02-21T02:31:45;12.30;99.90
16643;DHT22;8435;52.184;5.406;2024-02-21T02:34:12;12.30;99.90
16643;DHT22;8435;52.184;5.406;2024-02-21T02:36:38;12.30;99.90
16643;DHT22;8435;52.184;5.406;2024-02-21T02:39:05;12.30;99.90
16643;DHT22;8435;52.184;5.406;2024-02-21T02:41:36;12.30;99.90
16643;DHT22;8435;52.184;5.406;2024-02-21T02:44:03;12.30;99.90
16643;DHT22;8435;52.184;5.406;2024-02-21T02:46:30;12.30;99.90
16643;DHT22;8435;52.184;5.406;2024-02-21T02:48:56;12.30;99.90
16643;DHT22;8435;52.184;5.406;2024-02-21T02:51:23;12.30;99.90
16643;DHT22;8435;52.184;5.406;2024-02-21T02:53:50;12.30;99.90
16643;DHT22;8435;52.184;5.406;2024-02-21T02:56:17;12.30;99.90
16643;DHT22;8435;52.184;5.406;2024-02-21T02:58:45;12.30;99.90
16643;DHT22;8435;52.184;5.406;2024-02-21T03:01:12;12.40;99.90
16643;DHT22;8435;52.184;5.406;2024-02-21T03:03:39;12.30;99.90
16643;DHT22;8435;52.184;5.406;2024-02-21T03:06:06;12.30;99.90
16643;DHT22;8435;52.184;5.406;2024-02-21T03:08:33;12.30;99.90
16643;DHT22;8435;52.184;5.406;2024-02-21T03:10:59;12.30;99.90
16643;DHT22;8435;52.184;5.406;2024-02-21T03:13:26;12.20;99.90
16643;DHT22;8435;52.184;5.406;2024-02-21T03:15:54;12.30;99.90
16643;DHT22;8435;52.184;5.406;2024-02-21T03:18:21;12.30;99.90
16643;DHT22;8435;52.184;5.406;2024-02-21T03:20:48;12.30;99.90
16643;DHT22;8435;52.184;5.406;2024-02-21T03:23:15;12.30;99.90
16643;DHT22;8435;52.184;5.406;2024-02-21T03:25:41;12.30;99.90
16643;DHT22;8435;52.184;5.406;2024-02-21T03:28:08;12.30;99.90
16643;DHT22;8435;52.184;5.406;2024-02-21T03:30:35;12.30;99.90
16643;DHT22;8435;52.184;5.406;2024-02-21T03:33:04;12.30;99.90
16643;DHT22;8435;52.184;5.406;2024-02-21T03:35:30;12.30;99.90
16643;DHT22;8435;52.184;5.406;2024-02-21T03:37:57;12.30;99.90
16643;DHT22;8435;52.184;5.406;2024-02-21T03:40:24;12.30;99.90
16643;DHT22;8435;52.184;5.406;2024-02-21T03:42:50;12.30;99.90
16643;DHT22;8435;52.184;5.406;2024-02-21T03:45:17;12.30;99.90
16643;DHT22;8435;52.184;5.406;2024-02-21T03:47:44;12.30;99.90
16643;DHT22;8435;52.184;5.406;2024-02-21T03:50:12;12.30;99.90
16643;DHT22;8435;52.184;5.406;2024-02-21T03:52:39;12.30;99.90
16643;DHT22;8435;52.184;5.406;2024-02-21T03:55:07;12.30;99.90
16643;DHT22;8435;52.184;5.406;2024-02-21T03:57:34;12.30;99.90
16643;DHT22;8435;52.184;5.406;2024-02-21T04:00:01;12.30;99.90
16643;DHT22;8435;52.184;5.406;2024-02-21T04:02:29;12.30;99.90
16643;DHT22;8435;52.184;5.406;2024-02-21T04:04:55;12.30;99.90
16643;DHT22;8435;52.184;5.406;2024-02-21T04:07:23;12.30;99.90
16643;DHT22;8435;52.184;5.406;2024-02-21T04:09:50;12.30;99.90
16643;DHT22;8435;52.184;5.406;2024-02-21T04:12:17;12.30;99.90
16643;DHT22;8435;52.184;5.406;2024-02-21T04:14:44;12.30;99.90
16643;DHT22;8435;52.184;5.406;2024-02-21T04:17:11;12.30;99.90
16643;DHT22;8435;52.184;5.406;2024-02-21T04:19:37;12.30;99.90
16643;DHT22;8435;52.184;5.406;2024-02-21T04:22:04;12.30;99.90
16643;DHT22;8435;52.184;5.406;2024-02-21T04:24:32;12.30;99.90
16643;DHT22;8435;52.184;5.406;2024-02-21T04:26:59;12.30;99.90
16643;DHT22;8435;52.184;5.406;2024-02-21T04:29:26;12.30;99.90
16643;DHT22;8435;52.184;5.406;2024-02-21T04:31:54;12.30;99.90
16643;DHT22;8435;52.184;5.406;2024-02-21T04:34:20;12.30;99.90
16643;DHT22;8435;52.184;5.406;2024-02-21T04:36:47;12.30;99.90
16643;DHT22;8435;52.184;5.406;2024-02-21T04:39:14;12.30;99.90
16643;DHT22;8435;52.184;5.406;2024-02-21T04:41:42;12.30;99.90
16643;DHT22;8435;52.184;5.406;2024-02-21T04:44:09;12.30;99.90
16643;DHT22;8435;52.184;5.406;2024-02-21T04:46:36;12.20;99.90
16643;DHT22;8435;52.184;5.406;2024-02-21T04:49:03;12.20;99.90
16643;DHT22;8435;52.184;5.406;2024-02-21T04:51:29;12.20;99.90
16643;DHT22;8435;52.184;5.406;2024-02-21T04:53:56;12.20;99.90
16643;DHT22;8435;52.184;5.406;2024-02-21T04:56:23;12.20;99.90
16643;DHT22;8435;52.184;5.406;2024-02-21T04:58:51;12.20;99.90
16643;DHT22;8435;52.184;5.406;2024-02-21T05:01:18;12.20;99.90
16643;DHT22;8435;52.184;5.406;2024-02-21T05:03:45;12.20;99.90
16643;DHT22;8435;52.184;5.406;2024-02-21T05:06:12;12.20;99.90
16643;DHT22;8435;52.184;5.406;2024-02-21T05:08:39;12.10;99.90
16643;DHT22;8435;52.184;5.406;2024-02-21T05:11:06;12.10;99.90
16643;DHT22;8435;52.184;5.406;2024-02-21T05:13:33;12.20;99.90
16643;DHT22;8435;52.184;5.406;2024-02-21T05:16:01;12.10;99.90
16643;DHT22;8435;52.184;5.406;2024-02-21T05:18:28;12.20;99.90
16643;DHT22;8435;52.184;5.406;2024-02-21T05:20:55;12.10;99.90
16643;DHT22;8435;52.184;5.406;2024-02-21T05:23:21;12.20;99.90
16643;DHT22;8435;52.184;5.406;2024-02-21T05:25:48;12.10;99.90
16643;DHT22;8435;52.184;5.406;2024-02-21T05:28:15;12.10;99.90
16643;DHT22;8435;52.184;5.406;2024-02-21T05:30:42;12.10;99.90
16643;DHT22;8435;52.184;5.406;2024-02-21T05:33:10;12.10;99.90
16643;DHT22;8435;52.184;5.406;2024-02-21T05:35:38;12.10;99.90
16643;DHT22;8435;52.184;5.406;2024-02-21T05:38:05;12.10;99.90
16643;DHT22;8435;52.184;5.406;2024-02-21T05:40:36;12.10;99.90
16643;DHT22;8435;52.184;5.406;2024-02-21T05:43:03;12.10;99.90
16643;DHT22;8435;52.184;5.406;2024-02-21T05:45:30;12.10;99.90
16643;DHT22;8435;52.184;5.406;2024-02-21T05:47:57;12.10;99.90
16643;DHT22;8435;52.184;5.406;2024-02-21T05:50:24;12.10;99.90
16643;DHT22;8435;52.184;5.406;2024-02-21T05:52:52;12.10;99.90
16643;DHT22;8435;52.184;5.406;2024-02-21T05:55:19;12.10;99.90
16643;DHT22;8435;52.184;5.406;2024-02-21T05:57:45;12.00;99.90
16643;DHT22;8435;52.184;5.406;2024-02-21T06:00:13;12.10;99.90
16643;DHT22;8435;52.184;5.406;2024-02-21T06:02:41;12.10;99.90
16643;DHT22;8435;52.184;5.406;2024-02-21T06:05:08;12.20;99.90
16643;DHT22;8435;52.184;5.406;2024-02-21T06:07:36;12.10;99.90
16643;DHT22;8435;52.184;5.406;2024-02-21T06:10:03;12.10;99.90
16643;DHT22;8435;52.184;5.406;2024-02-21T06:12:30;12.10;99.90
16643;DHT22;8435;52.184;5.406;2024-02-21T06:14:57;12.10;99.90
16643;DHT22;8435;52.184;5.406;2024-02-21T06:17:24;12.10;99.90
16643;DHT22;8435;52.184;5.406;2024-02-21T06:19:51;12.00;99.90
16643;DHT22;8435;52.184;5.406;2024-02-21T06:22:18;12.10;99.90
16643;DHT22;8435;52.184;5.406;2024-02-21T06:24:46;12.10;99.90
16643;DHT22;8435;52.184;5.406;2024-02-21T06:27:13;12.10;99.90
16643;DHT22;8435;52.184;5.406;2024-02-21T06:29:41;12.10;99.90
16643;DHT22;8435;52.184;5.406;2024-02-21T06:32:08;12.10;99.90
16643;DHT22;8435;52.184;5.406;2024-02-21T06:34:35;12.10;99.90
16643;DHT22;8435;52.184;5.406;2024-02-21T06:37:02;12.10;99.90
16643;DHT22;8435;52.184;5.406;2024-02-21T06:39:29;12.10;99.90
16643;DHT22;8435;52.184;5.406;2024-02-21T06:41:57;12.10;99.90
16643;DHT22;8435;52.184;5.406;2024-02-21T06:44:25;12.10;99.90
16643;DHT22;8435;52.184;5.406;2024-02-21T06:46:52;12.00;99.90
16643;DHT22;8435;52.184;5.406;2024-02-21T06:49:20;12.00;99.90
16643;DHT22;8435;52.184;5.406;2024-02-21T06:51:46;12.00;99.90
16643;DHT22;8435;52.184;5.406;2024-02-21T06:54:13;12.00;99.90
16643;DHT22;8435;52.184;5.406;2024-02-21T06:56:40;12.00;99.90
16643;DHT22;8435;52.184;5.406;2024-02-21T06:59:09;12.00;99.90
16643;DHT22;8435;52.184;5.406;2024-02-21T07:01:36;12.10;99.90
16643;DHT22;8435;52.184;5.406;2024-02-21T07:04:02;12.10;99.90
16643;DHT22;8435;52.184;5.406;2024-02-21T07:06:29;12.10;99.90
16643;DHT22;8435;52.184;5.406;2024-02-21T07:08:56;12.10;99.90
16643;DHT22;8435;52.184;5.406;2024-02-21T07:11:23;12.00;99.90
16643;DHT22;8435;52.184;5.406;2024-02-21T07:13:50;12.10;99.90
16643;DHT22;8435;52.184;5.406;2024-02-21T07:16:18;12.00;99.90
16643;DHT22;8435;52.184;5.406;2024-02-21T07:18:45;12.10;99.90
16643;DHT22;8435;52.184;5.406;2024-02-21T07:21:12;12.00;99.90
16643;DHT22;8435;52.184;5.406;2024-02-21T07:23:40;12.00;99.90
16643;DHT22;8435;52.184;5.406;2024-02-21T07:26:07;12.00;99.90
16643;DHT22;8435;52.184;5.406;2024-02-21T07:28:34;12.00;99.90
16643;DHT22;8435;52.184;5.406;2024-02-21T07:31:01;12.00;99.90
16643;DHT22;8435;52.184;5.406;2024-02-21T07:33:29;12.00;99.90
16643;DHT22;8435;52.184;5.406;2024-02-21T07:35:56;12.00;99.90
16643;DHT22;8435;52.184;5.406;2024-02-21T07:38:23;12.00;99.90
16643;DHT22;8435;52.184;5.406;2024-02-21T07:40:50;12.00;99.90
16643;DHT22;8435;52.184;5.406;2024-02-21T07:43:16;12.00;99.90
16643;DHT22;8435;52.184;5.406;2024-02-21T07:45:43;12.00;99.90
16643;DHT22;8435;52.184;5.406;2024-02-21T07:48:10;12.00;99.90
16643;DHT22;8435;52.184;5.406;2024-02-21T07:50:38;12.00;99.90
16643;DHT22;8435;52.184;5.406;2024-02-21T07:53:05;12.00;99.90
16643;DHT22;8435;52.184;5.406;2024-02-21T07:55:32;12.10;99.90
16643;DHT22;8435;52.184;5.406;2024-02-21T07:57:59;12.00;99.90
16643;DHT22;8435;52.184;5.406;2024-02-21T08:00:25;12.10;99.90
16643;DHT22;8435;52.184;5.406;2024-02-21T08:02:52;12.10;99.90
16643;DHT22;8435;52.184;5.406;2024-02-21T08:05:19;12.10;99.90
16643;DHT22;8435;52.184;5.406;2024-02-21T08:07:48;12.10;99.90
16643;DHT22;8435;52.184;5.406;2024-02-21T08:10:15;12.10;99.90
16643;DHT22;8435;52.184;5.406;2024-02-21T08:12:42;12.10;99.90
16643;DHT22;8435;52.184;5.406;2024-02-21T08:15:09;12.10;99.90
16643;DHT22;8435;52.184;5.406;2024-02-21T08:17:36;12.10;99.90
16643;DHT22;8435;52.184;5.406;2024-02-21T08:20:03;12.10;99.90
16643;DHT22;8435;52.184;5.406;2024-02-21T08:22:30;12.10;99.90
16643;DHT22;8435;52.184;5.406;2024-02-21T08:24:58;12.10;99.90
16643;DHT22;8435;52.184;5.406;2024-02-21T08:27:25;12.10;99.90
16643;DHT22;8435;52.184;5.406;2024-02-21T08:29:52;12.10;99.90
16643;DHT22;8435;52.184;5.406;2024-02-21T08:32:19;12.20;99.90
16643;DHT22;8435;52.184;5.406;2024-02-21T08:34:46;12.20;99.90
16643;DHT22;8435;52.184;5.406;2024-02-21T08:37:12;12.20;99.90
16643;DHT22;8435;52.184;5.406;2024-02-21T08:39:39;12.20;99.90
16643;DHT22;8435;52.184;5.406;2024-02-21T08:42:07;12.20;99.90
16643;DHT22;8435;52.184;5.406;2024-02-21T08:44:34;12.20;99.90
16643;DHT22;8435;52.184;5.406;2024-02-21T08:47:01;12.30;99.90
16643;DHT22;8435;52.184;5.406;2024-02-21T08:49:29;12.30;99.90
16643;DHT22;8435;52.184;5.406;2024-02-21T08:51:56;12.30;99.90
16643;DHT22;8435;52.184;5.406;2024-02-21T08:54:23;12.30;99.90
16643;DHT22;8435;52.184;5.406;2024-02-21T08:56:50;12.30;99.90
16643;DHT22;8435;52.184;5.406;2024-02-21T08:59:18;12.40;99.90
16643;DHT22;8435;52.184;5.406;2024-02-21T09:01:46;12.40;99.90
16643;DHT22;8435;52.184;5.406;2024-02-21T09:04:13;12.40;99.90
16643;DHT22;8435;52.184;5.406;2024-02-21T09:06:39;12.50;99.90
16643;DHT22;8435;52.184;5.406;2024-02-21T09:09:08;12.50;99.90
16643;DHT22;8435;52.184;5.406;2024-02-21T09:11:35;12.60;99.90
16643;DHT22;8435;52.184;5.406;2024-02-21T09:14:02;12.50;99.90
16643;DHT22;8435;52.184;5.406;2024-02-21T09:16:32;12.60;99.90
16643;DHT22;8435;52.184;5.406;2024-02-21T09:18:59;12.60;99.90
16643;DHT22;8435;52.184;5.406;2024-02-21T09:21:26;12.70;99.90
16643;DHT22;8435;52.184;5.406;2024-02-21T09:23:53;12.70;99.90
16643;DHT22;8435;52.184;5.406;2024-02-21T09:26:20;12.70;99.90
16643;DHT22;8435;52.184;5.406;2024-02-21T09:28:47;12.70;99.90
16643;DHT22;8435;52.184;5.406;2024-02-21T09:31:14;12.70;99.90
16643;DHT22;8435;52.184;5.406;2024-02-21T09:33:42;12.80;99.90
16643;DHT22;8435;52.184;5.406;2024-02-21T09:36:08;12.80;99.90
16643;DHT22;8435;52.184;5.406;2024-02-21T09:38:35;12.80;99.90
16643;DHT22;8435;52.184;5.406;2024-02-21T09:41:11;12.80;99.90
16643;DHT22;8435;52.184;5.406;2024-02-21T09:43:40;12.80;99.90
16643;DHT22;8435;52.184;5.406;2024-02-21T09:46:09;12.90;99.90
16643;DHT22;8435;52.184;5.406;2024-02-21T09:48:55;12.80;99.90
16643;DHT22;8435;52.184;5.406;2024-02-21T09:51:27;12.90;99.90
16643;DHT22;8435;52.184;5.406;2024-02-21T09:53:56;12.90;99.90
16643;DHT22;8435;52.184;5.406;2024-02-21T09:56:24;12.90;99.90
16643;DHT22;8435;52.184;5.406;2024-02-21T09:58:50;12.90;99.90
16643;DHT22;8435;52.184;5.406;2024-02-21T10:01:17;12.90;99.90
16643;DHT22;8435;52.184;5.406;2024-02-21T10:03:45;13.00;99.90
16643;DHT22;8435;52.184;5.406;2024-02-21T10:06:12;13.00;99.90
16643;DHT22;8435;52.184;5.406;2024-02-21T10:08:39;13.00;99.90
16643;DHT22;8435;52.184;5.406;2024-02-21T10:11:06;12.90;99.90
16643;DHT22;8435;52.184;5.406;2024-02-21T10:13:37;13.00;99.90
16643;DHT22;8435;52.184;5.406;2024-02-21T10:16:06;13.10;99.90
16643;DHT22;8435;52.184;5.406;2024-02-21T10:18:33;13.10;99.90
16643;DHT22;8435;52.184;5.406;2024-02-21T10:21:05;13.10;99.90
16643;DHT22;8435;52.184;5.406;2024-02-21T10:23:45;13.10;99.90
16643;DHT22;8435;52.184;5.406;2024-02-21T10:26:12;13.20;99.90
16643;DHT22;8435;52.184;5.406;2024-02-21T10:28:39;13.20;99.90
16643;DHT22;8435;52.184;5.406;2024-02-21T10:31:08;13.20;99.90
16643;DHT22;8435;52.184;5.406;2024-02-21T10:33:35;13.20;99.90
16643;DHT22;8435;52.184;5.406;2024-02-21T10:36:11;13.20;99.90
16643;DHT22;8435;52.184;5.406;2024-02-21T10:38:38;13.20;99.90
16643;DHT22;8435;52.184;5.406;2024-02-21T10:41:05;13.30;99.90
16643;DHT22;8435;52.184;5.406;2024-02-21T10:43:38;13.30;99.90
16643;DHT22;8435;52.184;5.406;2024-02-21T10:46:06;13.30;99.90
16643;DHT22;8435;52.184;5.406;2024-02-21T10:48:42;13.40;99.90
16643;DHT22;8435;52.184;5.406;2024-02-21T10:51:15;13.40;99.90
16643;DHT22;8435;52.184;5.406;2024-02-21T10:53:45;13.50;99.90
16643;DHT22;8435;52.184;5.406;2024-02-21T10:56:26;13.50;99.90
16643;DHT22;8435;52.184;5.406;2024-02-21T10:58:55;13.50;99.90
16643;DHT22;8435;52.184;5.406;2024-02-21T11:01:24;13.50;99.90
16643;DHT22;8435;52.184;5.406;2024-02-21T11:03:54;13.50;99.90
16643;DHT22;8435;52.184;5.406;2024-02-21T11:06:26;13.50;99.90
16643;DHT22;8435;52.184;5.406;2024-02-21T11:09:02;13.50;99.90
16643;DHT22;8435;52.184;5.406;2024-02-21T11:11:33;13.50;99.90
16643;DHT22;8435;52.184;5.406;2024-02-21T11:14:07;13.50;99.90
16643;DHT22;8435;52.184;5.406;2024-02-21T11:16:36;13.50;99.90
16643;DHT22;8435;52.184;5.406;2024-02-21T11:19:08;13.50;99.90
16643;DHT22;8435;52.184;5.406;2024-02-21T11:21:37;13.50;99.90
16643;DHT22;8435;52.184;5.406;2024-02-21T11:24:04;13.50;99.90
16643;DHT22;8435;52.184;5.406;2024-02-21T11:26:32;13.50;99.90
16643;DHT22;8435;52.184;5.406;2024-02-21T11:29:00;13.50;99.90
16643;DHT22;8435;52.184;5.406;2024-02-21T11:31:38;13.50;99.90
16643;DHT22;8435;52.184;5.406;2024-02-21T11:34:08;13.40;99.90
16643;DHT22;8435;52.184;5.406;2024-02-21T11:36:46;13.40;99.90
16643;DHT22;8435;52.184;5.406;2024-02-21T11:39:18;13.40;99.90
16643;DHT22;8435;52.184;5.406;2024-02-21T11:41:46;13.40;99.90
16643;DHT22;8435;52.184;5.406;2024-02-21T11:44:13;13.30;99.90
16643;DHT22;8435;52.184;5.406;2024-02-21T11:46:40;13.40;99.90
16643;DHT22;8435;52.184;5.406;2024-02-21T11:49:07;13.30;99.90
16643;DHT22;8435;52.184;5.406;2024-02-21T11:51:34;13.30;99.90
16643;DHT22;8435;52.184;5.406;2024-02-21T11:54:02;13.20;99.90
16643;DHT22;8435;52.184;5.406;2024-02-21T11:56:30;13.20;99.90
16643;DHT22;8435;52.184;5.406;2024-02-21T11:58:59;13.20;99.90
16643;DHT22;8435;52.184;5.406;2024-02-21T12:01:25;13.20;99.90
16643;DHT22;8435;52.184;5.406;2024-02-21T12:03:52;13.10;99.90
16643;DHT22;8435;52.184;5.406;2024-02-21T12:06:19;13.10;99.90
16643;DHT22;8435;52.184;5.406;2024-02-21T12:08:47;13.20;99.90
16643;DHT22;8435;52.184;5.406;2024-02-21T12:11:22;13.20;99.90
16643;DHT22;8435;52.184;5.406;2024-02-21T12:13:58;13.20;99.90
16643;DHT22;8435;52.184;5.406;2024-02-21T12:16:27;13.20;99.90
16643;DHT22;8435;52.184;5.406;2024-02-21T12:18:54;13.30;99.90
16643;DHT22;8435;52.184;5.406;2024-02-21T12:21:24;13.30;99.90
16643;DHT22;8435;52.184;5.406;2024-02-21T12:23:51;13.40;99.90
16643;DHT22;8435;52.184;5.406;2024-02-21T12:26:18;13.50;99.90
16643;DHT22;8435;52.184;5.406;2024-02-21T12:28:46;13.50;99.90
16643;DHT22;8435;52.184;5.406;2024-02-21T12:31:13;13.60;99.90
16643;DHT22;8435;52.184;5.406;2024-02-21T12:33:41;13.70;99.90
16643;DHT22;8435;52.184;5.406;2024-02-21T12:36:08;13.80;99.90
16643;DHT22;8435;52.184;5.406;2024-02-21T12:38:35;13.80;99.90
16643;DHT22;8435;52.184;5.406;2024-02-21T12:41:02;13.90;99.90
16643;DHT22;8435;52.184;5.406;2024-02-21T12:43:29;13.90;99.90
16643;DHT22;8435;52.184;5.406;2024-02-21T12:45:57;13.90;99.90
16643;DHT22;8435;52.184;5.406;2024-02-21T12:48:24;14.00;99.90
16643;DHT22;8435;52.184;5.406;2024-02-21T12:50:51;14.00;99.90
16643;DHT22;8435;52.184;5.406;2024-02-21T12:53:18;14.00;99.90
16643;DHT22;8435;52.184;5.406;2024-02-21T12:55:46;14.00;99.90
16643;DHT22;8435;52.184;5.406;2024-02-21T12:58:14;14.00;99.90
16643;DHT22;8435;52.184;5.406;2024-02-21T13:00:41;14.10;99.90
16643;DHT22;8435;52.184;5.406;2024-02-21T13:03:09;14.00;99.90
16643;DHT22;8435;52.184;5.406;2024-02-21T13:05:36;14.00;99.90
16643;DHT22;8435;52.184;5.406;2024-02-21T13:08:04;14.10;99.90
16643;DHT22;8435;52.184;5.406;2024-02-21T13:10:31;14.10;99.90
16643;DHT22;8435;52.184;5.406;2024-02-21T13:12:59;14.10;99.90
16643;DHT22;8435;52.184;5.406;2024-02-21T13:15:26;14.20;99.90
16643;DHT22;8435;52.184;5.406;2024-02-21T13:17:54;14.10;99.90
16643;DHT22;8435;52.184;5.406;2024-02-21T13:20:22;14.20;99.90
16643;DHT22;8435;52.184;5.406;2024-02-21T13:22:49;14.20;99.90
16643;DHT22;8435;52.184;5.406;2024-02-21T13:25:15;14.20;99.90
16643;DHT22;8435;52.184;5.406;2024-02-21T13:27:45;14.20;99.90
16643;DHT22;8435;52.184;5.406;2024-02-21T13:30:13;14.30;99.90
16643;DHT22;8435;52.184;5.406;2024-02-21T13:32:41;14.20;99.90
16643;DHT22;8435;52.184;5.406;2024-02-21T13:35:08;14.30;99.90
16643;DHT22;8435;52.184;5.406;2024-02-21T13:37:38;14.30;99.90
16643;DHT22;8435;52.184;5.406;2024-02-21T13:40:06;14.30;99.90
16643;DHT22;8435;52.184;5.406;2024-02-21T13:42:34;14.20;99.90
16643;DHT22;8435;52.184;5.406;2024-02-21T13:45:01;14.20;99.90
16643;DHT22;8435;52.184;5.406;2024-02-21T13:47:28;14.20;99.90
16643;DHT22;8435;52.184;5.406;2024-02-21T13:49:55;14.20;99.90
16643;DHT22;8435;52.184;5.406;2024-02-21T13:52:22;14.20;99.90
16643;DHT22;8435;52.184;5.406;2024-02-21T13:54:53;14.10;99.90
16643;DHT22;8435;52.184;5.406;2024-02-21T13:57:28;14.10;99.90
16643;DHT22;8435;52.184;5.406;2024-02-21T13:59:55;14.00;99.90
16643;DHT22;8435;52.184;5.406;2024-02-21T14:02:21;14.10;99.90
16643;DHT22;8435;52.184;5.406;2024-02-21T14:04:48;14.10;99.90
16643;DHT22;8435;52.184;5.406;2024-02-21T14:07:15;14.10;99.90
16643;DHT22;8435;52.184;5.406;2024-02-21T14:09:42;14.00;99.90
16643;DHT22;8435;52.184;5.406;2024-02-21T14:12:10;14.00;99.90
16643;DHT22;8435;52.184;5.406;2024-02-21T14:14:37;14.00;99.90
16643;DHT22;8435;52.184;5.406;2024-02-21T14:17:04;14.00;99.90
16643;DHT22;8435;52.184;5.406;2024-02-21T14:19:31;14.00;99.90
16643;DHT22;8435;52.184;5.406;2024-02-21T14:21:58;14.00;99.90
16643;DHT22;8435;52.184;5.406;2024-02-21T14:24:24;14.00;99.90
16643;DHT22;8435;52.184;5.406;2024-02-21T14:26:53;14.00;99.90
16643;DHT22;8435;52.184;5.406;2024-02-21T14:29:21;14.00;99.90
16643;DHT22;8435;52.184;5.406;2024-02-21T14:31:48;13.90;99.90
16643;DHT22;8435;52.184;5.406;2024-02-21T14:34:15;13.90;99.90
16643;DHT22;8435;52.184;5.406;2024-02-21T14:36:42;13.90;99.90
16643;DHT22;8435;52.184;5.406;2024-02-21T14:39:08;13.90;99.90
16643;DHT22;8435;52.184;5.406;2024-02-21T14:41:35;13.80;99.90
16643;DHT22;8435;52.184;5.406;2024-02-21T14:44:02;13.80;99.90
16643;DHT22;8435;52.184;5.406;2024-02-21T14:46:37;13.80;99.90
16643;DHT22;8435;52.184;5.406;2024-02-21T14:49:04;13.80;99.90
16643;DHT22;8435;52.184;5.406;2024-02-21T14:51:31;13.80;99.90
16643;DHT22;8435;52.184;5.406;2024-02-21T14:53:58;13.80;99.90
16643;DHT22;8435;52.184;5.406;2024-02-21T14:56:25;13.80;99.90
16643;DHT22;8435;52.184;5.406;2024-02-21T14:58:52;13.80;99.90
16643;DHT22;8435;52.184;5.406;2024-02-21T15:01:19;13.80;99.90
16643;DHT22;8435;52.184;5.406;2024-02-21T15:03:55;13.80;99.90
16643;DHT22;8435;52.184;5.406;2024-02-21T15:06:21;13.80;99.90
16643;DHT22;8435;52.184;5.406;2024-02-21T15:08:48;13.80;99.90
16643;DHT22;8435;52.184;5.406;2024-02-21T15:11:15;13.70;99.90
16643;DHT22;8435;52.184;5.406;2024-02-21T15:13:43;13.70;99.90
16643;DHT22;8435;52.184;5.406;2024-02-21T15:16:11;13.70;99.90
16643;DHT22;8435;52.184;5.406;2024-02-21T15:18:38;13.60;99.90
16643;DHT22;8435;52.184;5.406;2024-02-21T15:21:06;13.60;99.90
16643;DHT22;8435;52.184;5.406;2024-02-21T15:23:36;13.50;99.90
16643;DHT22;8435;52.184;5.406;2024-02-21T15:26:03;13.50;99.90
16643;DHT22;8435;52.184;5.406;2024-02-21T15:28:30;13.50;99.90
16643;DHT22;8435;52.184;5.406;2024-02-21T15:30:57;13.40;99.90
16643;DHT22;8435;52.184;5.406;2024-02-21T15:33:24;13.30;99.90
16643;DHT22;8435;52.184;5.406;2024-02-21T15:35:52;13.20;99.90
16643;DHT22;8435;52.184;5.406;2024-02-21T15:38:20;13.20;99.90
16643;DHT22;8435;52.184;5.406;2024-02-21T15:40:47;13.10;99.90
16643;DHT22;8435;52.184;5.406;2024-02-21T15:43:15;13.00;99.90
16643;DHT22;8435;52.184;5.406;2024-02-21T15:45:42;12.90;99.90
16643;DHT22;8435;52.184;5.406;2024-02-21T15:48:08;12.90;99.90